<?xml version="1.0" encoding="UTF-8" standalone="no" ?>
<gpx xmlns="http://www.topografix.com/GPX/1/1" xmlns:xsi="http://www.w3.org/2001/XMLSchema-instance" xsi:schemaLocation="http://www.topografix.com/GPX/1/1 http://www.topografix.com/GPX/1/1/gpx.xsd" version="1.1" creator="VisuGPX - https://www.visugpx.com">
  <metadata>
    <name>Cluny - Tramayes - Cluny</name>
    <desc><![CDATA[Randonnée VTT en boucle vacances d'Avril au Sud de Cluny]]></desc>
  </metadata>
  <trk>
    <name><![CDATA[8479863-Cluny - Tramayes]]></name>
    <trkseg>
      <trkpt lat="46.43721" lon="4.6566">
        <ele>265</ele>
        <time>2018-03-28T18:13:19Z</time>
      </trkpt>
      <trkpt lat="46.43693" lon="4.65703">
        <ele>261</ele>
        <time>2018-03-28T18:14:19Z</time>
      </trkpt>
      <trkpt lat="46.43635" lon="4.65716">
        <ele>257</ele>
        <time>2018-03-28T18:15:19Z</time>
      </trkpt>
      <trkpt lat="46.43492" lon="4.6566">
        <ele>248</ele>
        <time>2018-03-28T18:16:19Z</time>
      </trkpt>
      <trkpt lat="46.43478" lon="4.65647">
        <ele>248</ele>
        <time>2018-03-28T18:17:19Z</time>
      </trkpt>
      <trkpt lat="46.43435" lon="4.65727">
        <ele>245</ele>
        <time>2018-03-28T18:18:19Z</time>
      </trkpt>
      <trkpt lat="46.43364" lon="4.6582">
        <ele>244</ele>
        <time>2018-03-28T18:19:19Z</time>
      </trkpt>
      <trkpt lat="46.43276" lon="4.65771">
        <ele>252</ele>
        <time>2018-03-28T18:20:19Z</time>
      </trkpt>
      <trkpt lat="46.43124" lon="4.65511">
        <ele>276</ele>
        <time>2018-03-28T18:21:19Z</time>
      </trkpt>
      <trkpt lat="46.43075" lon="4.65388">
        <ele>278</ele>
        <time>2018-03-28T18:22:19Z</time>
      </trkpt>
      <trkpt lat="46.42999" lon="4.65352">
        <ele>278</ele>
        <time>2018-03-28T18:23:19Z</time>
      </trkpt>
      <trkpt lat="46.42813" lon="4.65199">
        <ele>276</ele>
        <time>2018-03-28T18:24:19Z</time>
      </trkpt>
      <trkpt lat="46.42567" lon="4.65128">
        <ele>274</ele>
        <time>2018-03-28T18:25:19Z</time>
      </trkpt>
      <trkpt lat="46.42509" lon="4.65094">
        <ele>274</ele>
        <time>2018-03-28T18:26:19Z</time>
      </trkpt>
      <trkpt lat="46.42437" lon="4.65092">
        <ele>272</ele>
        <time>2018-03-28T18:27:19Z</time>
      </trkpt>
      <trkpt lat="46.42322" lon="4.65069">
        <ele>266</ele>
        <time>2018-03-28T18:28:19Z</time>
      </trkpt>
      <trkpt lat="46.42228" lon="4.65174">
        <ele>259</ele>
        <time>2018-03-28T18:29:19Z</time>
      </trkpt>
      <trkpt lat="46.42108" lon="4.65177">
        <ele>248</ele>
        <time>2018-03-28T18:30:19Z</time>
      </trkpt>
      <trkpt lat="46.41991" lon="4.65331">
        <ele>244</ele>
        <time>2018-03-28T18:31:19Z</time>
      </trkpt>
      <trkpt lat="46.41963" lon="4.65343">
        <ele>245</ele>
        <time>2018-03-28T18:32:19Z</time>
      </trkpt>
      <trkpt lat="46.4193" lon="4.65302">
        <ele>250</ele>
        <time>2018-03-28T18:33:19Z</time>
      </trkpt>
      <trkpt lat="46.41871" lon="4.65347">
        <ele>252</ele>
        <time>2018-03-28T18:34:19Z</time>
      </trkpt>
      <trkpt lat="46.41694" lon="4.65287">
        <ele>261</ele>
        <time>2018-03-28T18:35:19Z</time>
      </trkpt>
      <trkpt lat="46.41496" lon="4.65177">
        <ele>265</ele>
        <time>2018-03-28T18:36:19Z</time>
      </trkpt>
      <trkpt lat="46.41402" lon="4.65114">
        <ele>263</ele>
        <time>2018-03-28T18:37:19Z</time>
      </trkpt>
      <trkpt lat="46.41318" lon="4.65114">
        <ele>260</ele>
        <time>2018-03-28T18:38:19Z</time>
      </trkpt>
      <trkpt lat="46.41204" lon="4.65078">
        <ele>261</ele>
        <time>2018-03-28T18:39:19Z</time>
      </trkpt>
      <trkpt lat="46.41169" lon="4.65051">
        <ele>263</ele>
        <time>2018-03-28T18:40:19Z</time>
      </trkpt>
      <trkpt lat="46.40954" lon="4.64975">
        <ele>263</ele>
        <time>2018-03-28T18:41:19Z</time>
      </trkpt>
      <trkpt lat="46.40878" lon="4.65029">
        <ele>250</ele>
        <time>2018-03-28T18:42:19Z</time>
      </trkpt>
      <trkpt lat="46.40799" lon="4.64952">
        <ele>255</ele>
        <time>2018-03-28T18:43:19Z</time>
      </trkpt>
      <trkpt lat="46.40742" lon="4.64926">
        <ele>253</ele>
        <time>2018-03-28T18:44:19Z</time>
      </trkpt>
      <trkpt lat="46.40675" lon="4.6484">
        <ele>255</ele>
        <time>2018-03-28T18:45:19Z</time>
      </trkpt>
      <trkpt lat="46.40518" lon="4.64723">
        <ele>254</ele>
        <time>2018-03-28T18:46:19Z</time>
      </trkpt>
      <trkpt lat="46.40476" lon="4.64726">
        <ele>251</ele>
        <time>2018-03-28T18:47:19Z</time>
      </trkpt>
      <trkpt lat="46.4044" lon="4.64703">
        <ele>252</ele>
        <time>2018-03-28T18:48:19Z</time>
      </trkpt>
      <trkpt lat="46.40401" lon="4.64699">
        <ele>250</ele>
        <time>2018-03-28T18:49:19Z</time>
      </trkpt>
      <trkpt lat="46.40342" lon="4.64663">
        <ele>251</ele>
        <time>2018-03-28T18:50:19Z</time>
      </trkpt>
      <trkpt lat="46.40319" lon="4.64598">
        <ele>255</ele>
        <time>2018-03-28T18:51:19Z</time>
      </trkpt>
      <trkpt lat="46.40174" lon="4.64481">
        <ele>255</ele>
        <time>2018-03-28T18:52:19Z</time>
      </trkpt>
      <trkpt lat="46.40149" lon="4.64441">
        <ele>256</ele>
        <time>2018-03-28T18:53:19Z</time>
      </trkpt>
      <trkpt lat="46.40092" lon="4.64288">
        <ele>260</ele>
        <time>2018-03-28T18:54:19Z</time>
      </trkpt>
      <trkpt lat="46.40001" lon="4.64194">
        <ele>258</ele>
        <time>2018-03-28T18:55:19Z</time>
      </trkpt>
      <trkpt lat="46.39962" lon="4.64187">
        <ele>256</ele>
        <time>2018-03-28T18:56:19Z</time>
      </trkpt>
      <trkpt lat="46.39909" lon="4.64131">
        <ele>256</ele>
        <time>2018-03-28T18:57:19Z</time>
      </trkpt>
      <trkpt lat="46.39722" lon="4.63671">
        <ele>259</ele>
        <time>2018-03-28T18:58:19Z</time>
      </trkpt>
      <trkpt lat="46.39686" lon="4.6368">
        <ele>253</ele>
        <time>2018-03-28T18:59:19Z</time>
      </trkpt>
      <trkpt lat="46.39514" lon="4.63882">
        <ele>250</ele>
        <time>2018-03-28T19:00:19Z</time>
      </trkpt>
      <trkpt lat="46.39559" lon="4.64042">
        <ele>247</ele>
        <time>2018-03-28T19:01:19Z</time>
      </trkpt>
      <trkpt lat="46.39614" lon="4.64109">
        <ele>247</ele>
        <time>2018-03-28T19:02:19Z</time>
      </trkpt>
      <trkpt lat="46.39611" lon="4.64161">
        <ele>247</ele>
        <time>2018-03-28T19:03:19Z</time>
      </trkpt>
      <trkpt lat="46.39486" lon="4.64102">
        <ele>249</ele>
        <time>2018-03-28T19:04:19Z</time>
      </trkpt>
      <trkpt lat="46.39454" lon="4.64066">
        <ele>248</ele>
        <time>2018-03-28T19:05:19Z</time>
      </trkpt>
      <trkpt lat="46.39412" lon="4.63945">
        <ele>250</ele>
        <time>2018-03-28T19:06:19Z</time>
      </trkpt>
      <trkpt lat="46.3934" lon="4.63893">
        <ele>253</ele>
        <time>2018-03-28T19:07:19Z</time>
      </trkpt>
      <trkpt lat="46.39233" lon="4.63936">
        <ele>255</ele>
        <time>2018-03-28T19:08:19Z</time>
      </trkpt>
      <trkpt lat="46.39154" lon="4.63971">
        <ele>258</ele>
        <time>2018-03-28T19:09:19Z</time>
      </trkpt>
      <trkpt lat="46.39176" lon="4.64044">
        <ele>261</ele>
        <time>2018-03-28T19:10:19Z</time>
      </trkpt>
      <trkpt lat="46.39132" lon="4.64071">
        <ele>263</ele>
        <time>2018-03-28T19:11:19Z</time>
      </trkpt>
      <trkpt lat="46.39098" lon="4.64371">
        <ele>288</ele>
        <time>2018-03-28T19:12:19Z</time>
      </trkpt>
      <trkpt lat="46.39172" lon="4.64649">
        <ele>314</ele>
        <time>2018-03-28T19:13:19Z</time>
      </trkpt>
      <trkpt lat="46.39116" lon="4.6489">
        <ele>332</ele>
        <time>2018-03-28T19:14:19Z</time>
      </trkpt>
      <trkpt lat="46.39116" lon="4.65118">
        <ele>344</ele>
        <time>2018-03-28T19:15:19Z</time>
      </trkpt>
      <trkpt lat="46.39004" lon="4.65556">
        <ele>383</ele>
        <time>2018-03-28T19:16:19Z</time>
      </trkpt>
      <trkpt lat="46.38978" lon="4.65641">
        <ele>389</ele>
        <time>2018-03-28T19:17:19Z</time>
      </trkpt>
      <trkpt lat="46.38935" lon="4.6565">
        <ele>400</ele>
        <time>2018-03-28T19:18:19Z</time>
      </trkpt>
      <trkpt lat="46.38898" lon="4.65614">
        <ele>407</ele>
        <time>2018-03-28T19:19:19Z</time>
      </trkpt>
      <trkpt lat="46.38858" lon="4.65617">
        <ele>416</ele>
        <time>2018-03-28T19:20:19Z</time>
      </trkpt>
      <trkpt lat="46.38835" lon="4.65704">
        <ele>429</ele>
        <time>2018-03-28T19:21:19Z</time>
      </trkpt>
      <trkpt lat="46.38731" lon="4.65829">
        <ele>443</ele>
        <time>2018-03-28T19:22:19Z</time>
      </trkpt>
      <trkpt lat="46.38714" lon="4.65944">
        <ele>447</ele>
        <time>2018-03-28T19:23:19Z</time>
      </trkpt>
      <trkpt lat="46.38677" lon="4.66067">
        <ele>459</ele>
        <time>2018-03-28T19:24:19Z</time>
      </trkpt>
      <trkpt lat="46.38601" lon="4.66128">
        <ele>464</ele>
        <time>2018-03-28T19:25:19Z</time>
      </trkpt>
      <trkpt lat="46.3848" lon="4.66128">
        <ele>466</ele>
        <time>2018-03-28T19:26:19Z</time>
      </trkpt>
      <trkpt lat="46.38369" lon="4.6607">
        <ele>464</ele>
        <time>2018-03-28T19:27:19Z</time>
      </trkpt>
      <trkpt lat="46.38275" lon="4.66065">
        <ele>463</ele>
        <time>2018-03-28T19:28:19Z</time>
      </trkpt>
      <trkpt lat="46.38207" lon="4.65955">
        <ele>480</ele>
        <time>2018-03-28T19:29:19Z</time>
      </trkpt>
      <trkpt lat="46.38118" lon="4.65895">
        <ele>503</ele>
        <time>2018-03-28T19:30:19Z</time>
      </trkpt>
      <trkpt lat="46.37943" lon="4.65847">
        <ele>526</ele>
        <time>2018-03-28T19:31:19Z</time>
      </trkpt>
      <trkpt lat="46.37904" lon="4.65883">
        <ele>534</ele>
        <time>2018-03-28T19:32:19Z</time>
      </trkpt>
      <trkpt lat="46.3776" lon="4.65872">
        <ele>527</ele>
        <time>2018-03-28T19:33:19Z</time>
      </trkpt>
      <trkpt lat="46.37734" lon="4.66076">
        <ele>527</ele>
        <time>2018-03-28T19:34:19Z</time>
      </trkpt>
      <trkpt lat="46.37694" lon="4.66162">
        <ele>527</ele>
        <time>2018-03-28T19:35:19Z</time>
      </trkpt>
      <trkpt lat="46.37514" lon="4.66296">
        <ele>530</ele>
        <time>2018-03-28T19:36:19Z</time>
      </trkpt>
      <trkpt lat="46.37459" lon="4.66294">
        <ele>527</ele>
        <time>2018-03-28T19:37:19Z</time>
      </trkpt>
      <trkpt lat="46.37432" lon="4.66263">
        <ele>529</ele>
        <time>2018-03-28T19:38:19Z</time>
      </trkpt>
      <trkpt lat="46.37347" lon="4.66215">
        <ele>522</ele>
        <time>2018-03-28T19:39:19Z</time>
      </trkpt>
      <trkpt lat="46.37312" lon="4.66224">
        <ele>523</ele>
        <time>2018-03-28T19:40:19Z</time>
      </trkpt>
      <trkpt lat="46.3724" lon="4.66191">
        <ele>526</ele>
        <time>2018-03-28T19:41:19Z</time>
      </trkpt>
      <trkpt lat="46.3718" lon="4.66213">
        <ele>536</ele>
        <time>2018-03-28T19:42:19Z</time>
      </trkpt>
      <trkpt lat="46.37123" lon="4.66211">
        <ele>543</ele>
        <time>2018-03-28T19:43:19Z</time>
      </trkpt>
      <trkpt lat="46.3705" lon="4.66179">
        <ele>551</ele>
        <time>2018-03-28T19:44:19Z</time>
      </trkpt>
      <trkpt lat="46.36904" lon="4.66235">
        <ele>554</ele>
        <time>2018-03-28T19:45:19Z</time>
      </trkpt>
      <trkpt lat="46.36869" lon="4.66211">
        <ele>549</ele>
        <time>2018-03-28T19:46:19Z</time>
      </trkpt>
      <trkpt lat="46.36698" lon="4.66189">
        <ele>547</ele>
        <time>2018-03-28T19:47:19Z</time>
      </trkpt>
      <trkpt lat="46.36539" lon="4.66166">
        <ele>562</ele>
        <time>2018-03-28T19:48:19Z</time>
      </trkpt>
      <trkpt lat="46.36472" lon="4.66081">
        <ele>563</ele>
        <time>2018-03-28T19:49:19Z</time>
      </trkpt>
      <trkpt lat="46.3634" lon="4.65996">
        <ele>566</ele>
        <time>2018-03-28T19:50:19Z</time>
      </trkpt>
      <trkpt lat="46.36293" lon="4.66005">
        <ele>570</ele>
        <time>2018-03-28T19:51:19Z</time>
      </trkpt>
      <trkpt lat="46.3624" lon="4.65946">
        <ele>576</ele>
        <time>2018-03-28T19:52:19Z</time>
      </trkpt>
      <trkpt lat="46.36182" lon="4.65949">
        <ele>584</ele>
        <time>2018-03-28T19:53:19Z</time>
      </trkpt>
      <trkpt lat="46.36147" lon="4.65899">
        <ele>588</ele>
        <time>2018-03-28T19:54:19Z</time>
      </trkpt>
      <trkpt lat="46.36068" lon="4.6585">
        <ele>591</ele>
        <time>2018-03-28T19:55:19Z</time>
      </trkpt>
      <trkpt lat="46.35842" lon="4.65679">
        <ele>576</ele>
        <time>2018-03-28T19:56:19Z</time>
      </trkpt>
      <trkpt lat="46.3576" lon="4.65681">
        <ele>562</ele>
        <time>2018-03-28T19:57:19Z</time>
      </trkpt>
      <trkpt lat="46.35646" lon="4.65735">
        <ele>547</ele>
        <time>2018-03-28T19:58:19Z</time>
      </trkpt>
      <trkpt lat="46.35557" lon="4.65681">
        <ele>543</ele>
        <time>2018-03-28T19:59:19Z</time>
      </trkpt>
      <trkpt lat="46.35392" lon="4.65713">
        <ele>537</ele>
        <time>2018-03-28T20:00:19Z</time>
      </trkpt>
      <trkpt lat="46.35313" lon="4.65765">
        <ele>540</ele>
        <time>2018-03-28T20:01:19Z</time>
      </trkpt>
      <trkpt lat="46.3523" lon="4.65877">
        <ele>541</ele>
        <time>2018-03-28T20:02:19Z</time>
      </trkpt>
      <trkpt lat="46.35205" lon="4.65973">
        <ele>547</ele>
        <time>2018-03-28T20:03:19Z</time>
      </trkpt>
      <trkpt lat="46.35166" lon="4.65991">
        <ele>546</ele>
        <time>2018-03-28T20:04:19Z</time>
      </trkpt>
      <trkpt lat="46.3511" lon="4.65995">
        <ele>539</ele>
        <time>2018-03-28T20:05:19Z</time>
      </trkpt>
      <trkpt lat="46.34939" lon="4.66083">
        <ele>537</ele>
        <time>2018-03-28T20:06:19Z</time>
      </trkpt>
      <trkpt lat="46.34811" lon="4.65995">
        <ele>539</ele>
        <time>2018-03-28T20:07:19Z</time>
      </trkpt>
      <trkpt lat="46.34779" lon="4.66005">
        <ele>545</ele>
        <time>2018-03-28T20:08:19Z</time>
      </trkpt>
      <trkpt lat="46.34743" lon="4.66018">
        <ele>551</ele>
        <time>2018-03-28T20:09:19Z</time>
      </trkpt>
      <trkpt lat="46.34634" lon="4.65897">
        <ele>564</ele>
        <time>2018-03-28T20:10:19Z</time>
      </trkpt>
      <trkpt lat="46.34576" lon="4.65856">
        <ele>572</ele>
        <time>2018-03-28T20:11:19Z</time>
      </trkpt>
      <trkpt lat="46.34534" lon="4.65628">
        <ele>582</ele>
        <time>2018-03-28T20:12:19Z</time>
      </trkpt>
      <trkpt lat="46.34473" lon="4.65565">
        <ele>586</ele>
        <time>2018-03-28T20:13:19Z</time>
      </trkpt>
      <trkpt lat="46.34443" lon="4.65462">
        <ele>598</ele>
        <time>2018-03-28T20:14:19Z</time>
      </trkpt>
      <trkpt lat="46.3438" lon="4.65361">
        <ele>606</ele>
        <time>2018-03-28T20:15:19Z</time>
      </trkpt>
      <trkpt lat="46.34239" lon="4.6526">
        <ele>608</ele>
        <time>2018-03-28T20:16:19Z</time>
      </trkpt>
      <trkpt lat="46.34127" lon="4.65231">
        <ele>608</ele>
        <time>2018-03-28T20:17:19Z</time>
      </trkpt>
      <trkpt lat="46.34055" lon="4.65274">
        <ele>603</ele>
        <time>2018-03-28T20:18:19Z</time>
      </trkpt>
      <trkpt lat="46.3398" lon="4.65207">
        <ele>619</ele>
        <time>2018-03-28T20:19:19Z</time>
      </trkpt>
      <trkpt lat="46.33844" lon="4.64912">
        <ele>661</ele>
        <time>2018-03-28T20:20:19Z</time>
      </trkpt>
      <trkpt lat="46.33736" lon="4.64947">
        <ele>659</ele>
        <time>2018-03-28T20:21:19Z</time>
      </trkpt>
      <trkpt lat="46.33526" lon="4.64853">
        <ele>682</ele>
        <time>2018-03-28T20:22:19Z</time>
      </trkpt>
      <trkpt lat="46.33465" lon="4.64818">
        <ele>687</ele>
        <time>2018-03-28T20:23:19Z</time>
      </trkpt>
      <trkpt lat="46.33421" lon="4.64786">
        <ele>693</ele>
        <time>2018-03-28T20:24:19Z</time>
      </trkpt>
      <trkpt lat="46.33331" lon="4.64768">
        <ele>693</ele>
        <time>2018-03-28T20:25:19Z</time>
      </trkpt>
      <trkpt lat="46.33204" lon="4.64692">
        <ele>699</ele>
        <time>2018-03-28T20:26:19Z</time>
      </trkpt>
      <trkpt lat="46.33168" lon="4.64605">
        <ele>711</ele>
        <time>2018-03-28T20:27:19Z</time>
      </trkpt>
      <trkpt lat="46.33004" lon="4.64472">
        <ele>684</ele>
        <time>2018-03-28T20:28:19Z</time>
      </trkpt>
      <trkpt lat="46.32981" lon="4.64423">
        <ele>692</ele>
        <time>2018-03-28T20:29:19Z</time>
      </trkpt>
      <trkpt lat="46.32936" lon="4.64362">
        <ele>699</ele>
        <time>2018-03-28T20:30:19Z</time>
      </trkpt>
      <trkpt lat="46.32927" lon="4.64293">
        <ele>701</ele>
        <time>2018-03-28T20:31:19Z</time>
      </trkpt>
      <trkpt lat="46.3288" lon="4.64243">
        <ele>704</ele>
        <time>2018-03-28T20:32:19Z</time>
      </trkpt>
      <trkpt lat="46.32831" lon="4.64055">
        <ele>686</ele>
        <time>2018-03-28T20:33:19Z</time>
      </trkpt>
      <trkpt lat="46.32817" lon="4.63968">
        <ele>679</ele>
        <time>2018-03-28T20:34:19Z</time>
      </trkpt>
      <trkpt lat="46.32832" lon="4.63918">
        <ele>669</ele>
        <time>2018-03-28T20:35:19Z</time>
      </trkpt>
      <trkpt lat="46.32837" lon="4.63842">
        <ele>658</ele>
        <time>2018-03-28T20:36:19Z</time>
      </trkpt>
      <trkpt lat="46.32778" lon="4.63701">
        <ele>645</ele>
        <time>2018-03-28T20:37:19Z</time>
      </trkpt>
      <trkpt lat="46.32675" lon="4.63588">
        <ele>632</ele>
        <time>2018-03-28T20:38:19Z</time>
      </trkpt>
      <trkpt lat="46.32579" lon="4.63719">
        <ele>637</ele>
        <time>2018-03-28T20:39:19Z</time>
      </trkpt>
      <trkpt lat="46.32546" lon="4.63808">
        <ele>645</ele>
        <time>2018-03-28T20:40:19Z</time>
      </trkpt>
      <trkpt lat="46.32511" lon="4.63815">
        <ele>639</ele>
        <time>2018-03-28T20:41:19Z</time>
      </trkpt>
      <trkpt lat="46.32282" lon="4.63761">
        <ele>639</ele>
        <time>2018-03-28T20:42:19Z</time>
      </trkpt>
      <trkpt lat="46.32115" lon="4.63692">
        <ele>622</ele>
        <time>2018-03-28T20:43:19Z</time>
      </trkpt>
      <trkpt lat="46.31979" lon="4.63674">
        <ele>617</ele>
        <time>2018-03-28T20:44:19Z</time>
      </trkpt>
      <trkpt lat="46.31973" lon="4.63779">
        <ele>612</ele>
        <time>2018-03-28T20:45:19Z</time>
      </trkpt>
      <trkpt lat="46.31923" lon="4.63707">
        <ele>607</ele>
        <time>2018-03-28T20:46:19Z</time>
      </trkpt>
      <trkpt lat="46.31955" lon="4.63799">
        <ele>606</ele>
        <time>2018-03-28T20:47:19Z</time>
      </trkpt>
      <trkpt lat="46.31935" lon="4.63876">
        <ele>600</ele>
        <time>2018-03-28T20:48:19Z</time>
      </trkpt>
      <trkpt lat="46.31895" lon="4.63972">
        <ele>593</ele>
        <time>2018-03-28T20:49:19Z</time>
      </trkpt>
      <trkpt lat="46.31859" lon="4.64026">
        <ele>587</ele>
        <time>2018-03-28T20:50:19Z</time>
      </trkpt>
      <trkpt lat="46.3191" lon="4.63874">
        <ele>592</ele>
        <time>2018-03-28T20:51:19Z</time>
      </trkpt>
      <trkpt lat="46.31918" lon="4.63808">
        <ele>594</ele>
        <time>2018-03-28T20:52:19Z</time>
      </trkpt>
      <trkpt lat="46.31904" lon="4.6377">
        <ele>594</ele>
        <time>2018-03-28T20:53:19Z</time>
      </trkpt>
      <trkpt lat="46.3185" lon="4.6375">
        <ele>584</ele>
        <time>2018-03-28T20:54:19Z</time>
      </trkpt>
      <trkpt lat="46.31823" lon="4.63625">
        <ele>601</ele>
        <time>2018-03-28T20:55:19Z</time>
      </trkpt>
      <trkpt lat="46.31665" lon="4.63638">
        <ele>609</ele>
        <time>2018-03-28T20:56:19Z</time>
      </trkpt>
      <trkpt lat="46.31482" lon="4.63674">
        <ele>617</ele>
        <time>2018-03-28T20:57:19Z</time>
      </trkpt>
      <trkpt lat="46.31431" lon="4.63651">
        <ele>617</ele>
        <time>2018-03-28T20:58:19Z</time>
      </trkpt>
      <trkpt lat="46.31373" lon="4.63526">
        <ele>634</ele>
        <time>2018-03-28T20:59:19Z</time>
      </trkpt>
      <trkpt lat="46.31231" lon="4.6342">
        <ele>634</ele>
        <time>2018-03-28T21:00:19Z</time>
      </trkpt>
      <trkpt lat="46.31174" lon="4.63342">
        <ele>635</ele>
        <time>2018-03-28T21:01:19Z</time>
      </trkpt>
      <trkpt lat="46.31136" lon="4.63248">
        <ele>636</ele>
        <time>2018-03-28T21:02:19Z</time>
      </trkpt>
      <trkpt lat="46.31131" lon="4.632">
        <ele>636</ele>
        <time>2018-03-28T21:03:19Z</time>
      </trkpt>
      <trkpt lat="46.31158" lon="4.62951">
        <ele>628</ele>
        <time>2018-03-28T21:04:19Z</time>
      </trkpt>
      <trkpt lat="46.31002" lon="4.63003">
        <ele>640</ele>
        <time>2018-03-28T21:05:19Z</time>
      </trkpt>
      <trkpt lat="46.30946" lon="4.63041">
        <ele>650</ele>
        <time>2018-03-28T21:06:19Z</time>
      </trkpt>
      <trkpt lat="46.3088" lon="4.63131">
        <ele>662</ele>
        <time>2018-03-28T21:07:19Z</time>
      </trkpt>
      <trkpt lat="46.30832" lon="4.63145">
        <ele>664</ele>
        <time>2018-03-28T21:08:19Z</time>
      </trkpt>
      <trkpt lat="46.30744" lon="4.63127">
        <ele>677</ele>
        <time>2018-03-28T21:09:19Z</time>
      </trkpt>
      <trkpt lat="46.30695" lon="4.63144">
        <ele>684</ele>
        <time>2018-03-28T21:10:19Z</time>
      </trkpt>
      <trkpt lat="46.30666" lon="4.63136">
        <ele>688</ele>
        <time>2018-03-28T21:11:19Z</time>
      </trkpt>
      <trkpt lat="46.30587" lon="4.6318">
        <ele>691</ele>
        <time>2018-03-28T21:12:19Z</time>
      </trkpt>
      <trkpt lat="46.30551" lon="4.63182">
        <ele>695</ele>
        <time>2018-03-28T21:13:19Z</time>
      </trkpt>
      <trkpt lat="46.30491" lon="4.63205">
        <ele>703</ele>
        <time>2018-03-28T21:14:19Z</time>
      </trkpt>
      <trkpt lat="46.30443" lon="4.63311">
        <ele>707</ele>
        <time>2018-03-28T21:15:19Z</time>
      </trkpt>
      <trkpt lat="46.30385" lon="4.63342">
        <ele>710</ele>
        <time>2018-03-28T21:16:19Z</time>
      </trkpt>
      <trkpt lat="46.30226" lon="4.63453">
        <ele>706</ele>
        <time>2018-03-28T21:17:19Z</time>
      </trkpt>
      <trkpt lat="46.3018" lon="4.63672">
        <ele>683</ele>
        <time>2018-03-28T21:18:19Z</time>
      </trkpt>
      <trkpt lat="46.30155" lon="4.63894">
        <ele>660</ele>
        <time>2018-03-28T21:19:19Z</time>
      </trkpt>
      <trkpt lat="46.30138" lon="4.63761">
        <ele>667</ele>
        <time>2018-03-28T21:20:19Z</time>
      </trkpt>
      <trkpt lat="46.30026" lon="4.63524">
        <ele>682</ele>
        <time>2018-03-28T21:21:19Z</time>
      </trkpt>
      <trkpt lat="46.29941" lon="4.63492">
        <ele>676</ele>
        <time>2018-03-28T21:22:19Z</time>
      </trkpt>
      <trkpt lat="46.29871" lon="4.63485">
        <ele>670</ele>
        <time>2018-03-28T21:23:19Z</time>
      </trkpt>
      <trkpt lat="46.29809" lon="4.63496">
        <ele>665</ele>
        <time>2018-03-28T21:24:19Z</time>
      </trkpt>
      <trkpt lat="46.29621" lon="4.63548">
        <ele>661</ele>
        <time>2018-03-28T21:25:19Z</time>
      </trkpt>
      <trkpt lat="46.29557" lon="4.63595">
        <ele>666</ele>
        <time>2018-03-28T21:26:19Z</time>
      </trkpt>
      <trkpt lat="46.29521" lon="4.63597">
        <ele>662</ele>
        <time>2018-03-28T21:27:19Z</time>
      </trkpt>
      <trkpt lat="46.29399" lon="4.63667">
        <ele>667</ele>
        <time>2018-03-28T21:28:19Z</time>
      </trkpt>
      <trkpt lat="46.29296" lon="4.63654">
        <ele>664</ele>
        <time>2018-03-28T21:29:19Z</time>
      </trkpt>
      <trkpt lat="46.29198" lon="4.63555">
        <ele>660</ele>
        <time>2018-03-28T21:30:19Z</time>
      </trkpt>
      <trkpt lat="46.28982" lon="4.63634">
        <ele>647</ele>
        <time>2018-03-28T21:31:19Z</time>
      </trkpt>
      <trkpt lat="46.28764" lon="4.63521">
        <ele>659</ele>
        <time>2018-03-28T21:32:19Z</time>
      </trkpt>
      <trkpt lat="46.28732" lon="4.6351">
        <ele>659</ele>
        <time>2018-03-28T21:33:19Z</time>
      </trkpt>
      <trkpt lat="46.28657" lon="4.63438">
        <ele>650</ele>
        <time>2018-03-28T21:34:19Z</time>
      </trkpt>
      <trkpt lat="46.28577" lon="4.63292">
        <ele>633</ele>
        <time>2018-03-28T21:35:19Z</time>
      </trkpt>
      <trkpt lat="46.28515" lon="4.63046">
        <ele>609</ele>
        <time>2018-03-28T21:36:19Z</time>
      </trkpt>
      <trkpt lat="46.28563" lon="4.62978">
        <ele>608</ele>
        <time>2018-03-28T21:37:19Z</time>
      </trkpt>
      <trkpt lat="46.28596" lon="4.62895">
        <ele>600</ele>
        <time>2018-03-28T21:38:19Z</time>
      </trkpt>
      <trkpt lat="46.28634" lon="4.62832">
        <ele>603</ele>
        <time>2018-03-28T21:39:19Z</time>
      </trkpt>
      <trkpt lat="46.28639" lon="4.6274">
        <ele>588</ele>
        <time>2018-03-28T21:40:19Z</time>
      </trkpt>
      <trkpt lat="46.28649" lon="4.62637">
        <ele>585</ele>
        <time>2018-03-28T21:41:19Z</time>
      </trkpt>
      <trkpt lat="46.28642" lon="4.62379">
        <ele>567</ele>
        <time>2018-03-28T21:42:19Z</time>
      </trkpt>
      <trkpt lat="46.28693" lon="4.62256">
        <ele>562</ele>
        <time>2018-03-28T21:43:19Z</time>
      </trkpt>
      <trkpt lat="46.28722" lon="4.62124">
        <ele>539</ele>
        <time>2018-03-28T21:44:19Z</time>
      </trkpt>
      <trkpt lat="46.28853" lon="4.619">
        <ele>500</ele>
        <time>2018-03-28T21:45:19Z</time>
      </trkpt>
      <trkpt lat="46.28891" lon="4.61754">
        <ele>481</ele>
        <time>2018-03-28T21:46:19Z</time>
      </trkpt>
      <trkpt lat="46.28874" lon="4.6163">
        <ele>480</ele>
        <time>2018-03-28T21:47:19Z</time>
      </trkpt>
      <trkpt lat="46.28894" lon="4.61374">
        <ele>477</ele>
        <time>2018-03-28T21:48:19Z</time>
      </trkpt>
      <trkpt lat="46.28884" lon="4.6126">
        <ele>477</ele>
        <time>2018-03-28T21:49:19Z</time>
      </trkpt>
      <trkpt lat="46.28926" lon="4.61121">
        <ele>469</ele>
        <time>2018-03-28T21:50:19Z</time>
      </trkpt>
      <trkpt lat="46.28924" lon="4.61047">
        <ele>465</ele>
        <time>2018-03-28T21:51:19Z</time>
      </trkpt>
      <trkpt lat="46.28844" lon="4.60903">
        <ele>446</ele>
        <time>2018-03-28T21:52:19Z</time>
      </trkpt>
      <trkpt lat="46.28829" lon="4.60809">
        <ele>439</ele>
        <time>2018-03-28T21:53:19Z</time>
      </trkpt>
      <trkpt lat="46.2902" lon="4.60773">
        <ele>441</ele>
        <time>2018-03-28T21:54:19Z</time>
      </trkpt>
      <trkpt lat="46.29096" lon="4.60706">
        <ele>431</ele>
        <time>2018-03-28T21:55:19Z</time>
      </trkpt>
      <trkpt lat="46.29239" lon="4.60625">
        <ele>411</ele>
        <time>2018-03-28T21:56:19Z</time>
      </trkpt>
      <trkpt lat="46.29304" lon="4.60648">
        <ele>400</ele>
        <time>2018-03-28T21:57:19Z</time>
      </trkpt>
      <trkpt lat="46.29315" lon="4.60652">
        <ele>398</ele>
        <time>2018-03-28T21:58:19Z</time>
      </trkpt>
      <trkpt lat="46.2931" lon="4.60711">
        <ele>398</ele>
        <time>2018-03-28T21:59:19Z</time>
      </trkpt>
      <trkpt lat="46.29311" lon="4.60744">
        <ele>396</ele>
        <time>2018-03-28T22:00:19Z</time>
      </trkpt>
      <trkpt lat="46.29354" lon="4.60728">
        <ele>392</ele>
        <time>2018-03-28T22:01:19Z</time>
      </trkpt>
      <trkpt lat="46.29415" lon="4.6082">
        <ele>393</ele>
        <time>2018-03-28T22:02:19Z</time>
      </trkpt>
      <trkpt lat="46.29452" lon="4.60802">
        <ele>394</ele>
        <time>2018-03-28T22:03:19Z</time>
      </trkpt>
      <trkpt lat="46.29616" lon="4.60852">
        <ele>409</ele>
        <time>2018-03-28T22:04:19Z</time>
      </trkpt>
      <trkpt lat="46.30023" lon="4.6056">
        <ele>443</ele>
        <time>2018-03-28T22:05:19Z</time>
      </trkpt>
      <trkpt lat="46.30068" lon="4.60448">
        <ele>440</ele>
        <time>2018-03-28T22:06:19Z</time>
      </trkpt>
      <trkpt lat="46.30107" lon="4.60379">
        <ele>437</ele>
        <time>2018-03-28T22:07:19Z</time>
      </trkpt>
      <trkpt lat="46.3017" lon="4.60322">
        <ele>437</ele>
        <time>2018-03-28T22:08:19Z</time>
      </trkpt>
      <trkpt lat="46.3028" lon="4.60289">
        <ele>443</ele>
        <time>2018-03-28T22:09:19Z</time>
      </trkpt>
      <trkpt lat="46.30299" lon="4.60224">
        <ele>443</ele>
        <time>2018-03-28T22:10:19Z</time>
      </trkpt>
      <trkpt lat="46.30432" lon="4.60138">
        <ele>448</ele>
        <time>2018-03-28T22:11:19Z</time>
      </trkpt>
      <trkpt lat="46.30526" lon="4.60031">
        <ele>450</ele>
        <time>2018-03-28T22:12:19Z</time>
      </trkpt>
      <trkpt lat="46.30518" lon="4.59948">
        <ele>449</ele>
        <time>2018-03-28T22:13:19Z</time>
      </trkpt>
      <trkpt lat="46.30559" lon="4.59854">
        <ele>458</ele>
        <time>2018-03-28T22:14:19Z</time>
      </trkpt>
      <trkpt lat="46.3064" lon="4.59816">
        <ele>471</ele>
        <time>2018-03-28T22:15:19Z</time>
      </trkpt>
      <trkpt lat="46.30691" lon="4.59807">
        <ele>478</ele>
        <time>2018-03-28T22:16:19Z</time>
      </trkpt>
      <trkpt lat="46.30686" lon="4.59749">
        <ele>480</ele>
        <time>2018-03-28T22:17:19Z</time>
      </trkpt>
      <trkpt lat="46.30705" lon="4.59741">
        <ele>483</ele>
        <time>2018-03-28T22:18:19Z</time>
      </trkpt>
      <trkpt lat="46.30724" lon="4.59775">
        <ele>483</ele>
        <time>2018-03-28T22:19:19Z</time>
      </trkpt>
      <trkpt lat="46.30767" lon="4.59771">
        <ele>488</ele>
        <time>2018-03-28T22:20:19Z</time>
      </trkpt>
      <trkpt lat="46.30806" lon="4.59742">
        <ele>494</ele>
        <time>2018-03-28T22:21:19Z</time>
      </trkpt>
      <trkpt lat="46.30807" lon="4.59692">
        <ele>497</ele>
        <time>2018-03-28T22:22:19Z</time>
      </trkpt>
      <trkpt lat="46.30855" lon="4.59602">
        <ele>506</ele>
        <time>2018-03-28T22:23:19Z</time>
      </trkpt>
      <trkpt lat="46.30865" lon="4.59497">
        <ele>514</ele>
        <time>2018-03-28T22:24:19Z</time>
      </trkpt>
      <trkpt lat="46.30857" lon="4.59443">
        <ele>517</ele>
        <time>2018-03-28T22:25:19Z</time>
      </trkpt>
      <trkpt lat="46.30832" lon="4.59355">
        <ele>524</ele>
        <time>2018-03-28T22:26:19Z</time>
      </trkpt>
      <trkpt lat="46.30819" lon="4.59268">
        <ele>526</ele>
        <time>2018-03-28T22:27:19Z</time>
      </trkpt>
      <trkpt lat="46.30829" lon="4.5917">
        <ele>522</ele>
        <time>2018-03-28T22:28:19Z</time>
      </trkpt>
      <trkpt lat="46.30941" lon="4.59158">
        <ele>535</ele>
        <time>2018-03-28T22:29:19Z</time>
      </trkpt>
      <trkpt lat="46.30979" lon="4.59098">
        <ele>543</ele>
        <time>2018-03-28T22:30:19Z</time>
      </trkpt>
      <trkpt lat="46.30941" lon="4.59057">
        <ele>542</ele>
        <time>2018-03-28T22:31:19Z</time>
      </trkpt>
      <trkpt lat="46.30917" lon="4.58985">
        <ele>543</ele>
        <time>2018-03-28T22:32:19Z</time>
      </trkpt>
      <trkpt lat="46.30949" lon="4.58838">
        <ele>546</ele>
        <time>2018-03-28T22:33:19Z</time>
      </trkpt>
      <trkpt lat="46.30981" lon="4.58801">
        <ele>545</ele>
        <time>2018-03-28T22:34:19Z</time>
      </trkpt>
      <trkpt lat="46.31067" lon="4.58804">
        <ele>545</ele>
        <time>2018-03-28T22:35:19Z</time>
      </trkpt>
      <trkpt lat="46.31268" lon="4.58618">
        <ele>532</ele>
        <time>2018-03-28T22:36:19Z</time>
      </trkpt>
      <trkpt lat="46.31337" lon="4.58629">
        <ele>533</ele>
        <time>2018-03-28T22:37:19Z</time>
      </trkpt>
      <trkpt lat="46.31358" lon="4.5868">
        <ele>534</ele>
        <time>2018-03-28T22:38:19Z</time>
      </trkpt>
      <trkpt lat="46.31354" lon="4.58757">
        <ele>538</ele>
        <time>2018-03-28T22:39:19Z</time>
      </trkpt>
      <trkpt lat="46.31261" lon="4.58936">
        <ele>555</ele>
        <time>2018-03-28T22:40:19Z</time>
      </trkpt>
      <trkpt lat="46.31378" lon="4.59107">
        <ele>547</ele>
        <time>2018-03-28T22:41:19Z</time>
      </trkpt>
      <trkpt lat="46.31426" lon="4.59253">
        <ele>538</ele>
        <time>2018-03-28T22:42:19Z</time>
      </trkpt>
      <trkpt lat="46.31422" lon="4.59308">
        <ele>534</ele>
        <time>2018-03-28T22:43:19Z</time>
      </trkpt>
      <trkpt lat="46.31518" lon="4.5921">
        <ele>528</ele>
        <time>2018-03-28T22:44:19Z</time>
      </trkpt>
      <trkpt lat="46.31824" lon="4.59102">
        <ele>529</ele>
        <time>2018-03-28T22:45:19Z</time>
      </trkpt>
      <trkpt lat="46.31848" lon="4.59062">
        <ele>533</ele>
        <time>2018-03-28T22:46:19Z</time>
      </trkpt>
      <trkpt lat="46.31907" lon="4.59039">
        <ele>534</ele>
        <time>2018-03-28T22:47:19Z</time>
      </trkpt>
      <trkpt lat="46.31927" lon="4.59065">
        <ele>537</ele>
        <time>2018-03-28T22:48:19Z</time>
      </trkpt>
      <trkpt lat="46.31975" lon="4.59071">
        <ele>548</ele>
        <time>2018-03-28T22:49:19Z</time>
      </trkpt>
      <trkpt lat="46.32011" lon="4.59114">
        <ele>554</ele>
        <time>2018-03-28T22:50:19Z</time>
      </trkpt>
      <trkpt lat="46.32048" lon="4.59195">
        <ele>555</ele>
        <time>2018-03-28T22:51:19Z</time>
      </trkpt>
      <trkpt lat="46.32134" lon="4.59297">
        <ele>551</ele>
        <time>2018-03-28T22:52:19Z</time>
      </trkpt>
      <trkpt lat="46.32185" lon="4.5933">
        <ele>544</ele>
        <time>2018-03-28T22:53:19Z</time>
      </trkpt>
      <trkpt lat="46.32244" lon="4.59327">
        <ele>543</ele>
        <time>2018-03-28T22:54:19Z</time>
      </trkpt>
      <trkpt lat="46.32292" lon="4.59284">
        <ele>548</ele>
        <time>2018-03-28T22:55:19Z</time>
      </trkpt>
      <trkpt lat="46.32332" lon="4.59223">
        <ele>552</ele>
        <time>2018-03-28T22:56:19Z</time>
      </trkpt>
      <trkpt lat="46.324" lon="4.59179">
        <ele>558</ele>
        <time>2018-03-28T22:57:19Z</time>
      </trkpt>
      <trkpt lat="46.32525" lon="4.59152">
        <ele>551</ele>
        <time>2018-03-28T22:58:19Z</time>
      </trkpt>
      <trkpt lat="46.32612" lon="4.59199">
        <ele>545</ele>
        <time>2018-03-28T22:59:19Z</time>
      </trkpt>
      <trkpt lat="46.32756" lon="4.5916">
        <ele>549</ele>
        <time>2018-03-28T23:00:19Z</time>
      </trkpt>
      <trkpt lat="46.32819" lon="4.59143">
        <ele>549</ele>
        <time>2018-03-28T23:01:19Z</time>
      </trkpt>
      <trkpt lat="46.3289" lon="4.59165">
        <ele>555</ele>
        <time>2018-03-28T23:02:19Z</time>
      </trkpt>
      <trkpt lat="46.32948" lon="4.59226">
        <ele>556</ele>
        <time>2018-03-28T23:03:19Z</time>
      </trkpt>
      <trkpt lat="46.33013" lon="4.59201">
        <ele>555</ele>
        <time>2018-03-28T23:04:19Z</time>
      </trkpt>
      <trkpt lat="46.33103" lon="4.59252">
        <ele>555</ele>
        <time>2018-03-28T23:05:19Z</time>
      </trkpt>
      <trkpt lat="46.33265" lon="4.59235">
        <ele>552</ele>
        <time>2018-03-28T23:06:19Z</time>
      </trkpt>
      <trkpt lat="46.33317" lon="4.59331">
        <ele>555</ele>
        <time>2018-03-28T23:07:19Z</time>
      </trkpt>
      <trkpt lat="46.3357" lon="4.59483">
        <ele>563</ele>
        <time>2018-03-28T23:08:19Z</time>
      </trkpt>
      <trkpt lat="46.33764" lon="4.59454">
        <ele>556</ele>
        <time>2018-03-28T23:09:19Z</time>
      </trkpt>
      <trkpt lat="46.33914" lon="4.59513">
        <ele>555</ele>
        <time>2018-03-28T23:10:19Z</time>
      </trkpt>
      <trkpt lat="46.34116" lon="4.59508">
        <ele>553</ele>
        <time>2018-03-28T23:11:19Z</time>
      </trkpt>
      <trkpt lat="46.3421" lon="4.59451">
        <ele>556</ele>
        <time>2018-03-28T23:12:19Z</time>
      </trkpt>
      <trkpt lat="46.34346" lon="4.59497">
        <ele>565</ele>
        <time>2018-03-28T23:13:19Z</time>
      </trkpt>
      <trkpt lat="46.34386" lon="4.59589">
        <ele>566</ele>
        <time>2018-03-28T23:14:19Z</time>
      </trkpt>
      <trkpt lat="46.34492" lon="4.59703">
        <ele>569</ele>
        <time>2018-03-28T23:15:19Z</time>
      </trkpt>
      <trkpt lat="46.34538" lon="4.59726">
        <ele>570</ele>
        <time>2018-03-28T23:16:19Z</time>
      </trkpt>
      <trkpt lat="46.34662" lon="4.59761">
        <ele>577</ele>
        <time>2018-03-28T23:17:19Z</time>
      </trkpt>
      <trkpt lat="46.34799" lon="4.59905">
        <ele>585</ele>
        <time>2018-03-28T23:18:19Z</time>
      </trkpt>
      <trkpt lat="46.34887" lon="4.59972">
        <ele>590</ele>
        <time>2018-03-28T23:19:19Z</time>
      </trkpt>
      <trkpt lat="46.34903" lon="4.60024">
        <ele>590</ele>
        <time>2018-03-28T23:20:19Z</time>
      </trkpt>
      <trkpt lat="46.3502" lon="4.60118">
        <ele>584</ele>
        <time>2018-03-28T23:21:19Z</time>
      </trkpt>
      <trkpt lat="46.35149" lon="4.60185">
        <ele>565</ele>
        <time>2018-03-28T23:22:19Z</time>
      </trkpt>
      <trkpt lat="46.35244" lon="4.60156">
        <ele>559</ele>
        <time>2018-03-28T23:23:19Z</time>
      </trkpt>
      <trkpt lat="46.35355" lon="4.60273">
        <ele>556</ele>
        <time>2018-03-28T23:24:19Z</time>
      </trkpt>
      <trkpt lat="46.35478" lon="4.60273">
        <ele>547</ele>
        <time>2018-03-28T23:25:19Z</time>
      </trkpt>
      <trkpt lat="46.35661" lon="4.60394">
        <ele>539</ele>
        <time>2018-03-28T23:26:19Z</time>
      </trkpt>
      <trkpt lat="46.35695" lon="4.60464">
        <ele>539</ele>
        <time>2018-03-28T23:27:19Z</time>
      </trkpt>
      <trkpt lat="46.35813" lon="4.60583">
        <ele>523</ele>
        <time>2018-03-28T23:28:19Z</time>
      </trkpt>
      <trkpt lat="46.36051" lon="4.60641">
        <ele>487</ele>
        <time>2018-03-28T23:29:19Z</time>
      </trkpt>
      <trkpt lat="46.3606" lon="4.60569">
        <ele>487</ele>
        <time>2018-03-28T23:30:19Z</time>
      </trkpt>
      <trkpt lat="46.36214" lon="4.60547">
        <ele>483</ele>
        <time>2018-03-28T23:31:19Z</time>
      </trkpt>
      <trkpt lat="46.36296" lon="4.60563">
        <ele>486</ele>
        <time>2018-03-28T23:32:19Z</time>
      </trkpt>
      <trkpt lat="46.36398" lon="4.60634">
        <ele>488</ele>
        <time>2018-03-28T23:33:19Z</time>
      </trkpt>
      <trkpt lat="46.36478" lon="4.60648">
        <ele>488</ele>
        <time>2018-03-28T23:34:19Z</time>
      </trkpt>
      <trkpt lat="46.36598" lon="4.60895">
        <ele>475</ele>
        <time>2018-03-28T23:35:19Z</time>
      </trkpt>
      <trkpt lat="46.36715" lon="4.60995">
        <ele>447</ele>
        <time>2018-03-28T23:36:19Z</time>
      </trkpt>
      <trkpt lat="46.36929" lon="4.61319">
        <ele>447</ele>
        <time>2018-03-28T23:37:19Z</time>
      </trkpt>
      <trkpt lat="46.37015" lon="4.61421">
        <ele>454</ele>
        <time>2018-03-28T23:38:19Z</time>
      </trkpt>
      <trkpt lat="46.37065" lon="4.61435">
        <ele>455</ele>
        <time>2018-03-28T23:39:19Z</time>
      </trkpt>
      <trkpt lat="46.37094" lon="4.61489">
        <ele>458</ele>
        <time>2018-03-28T23:40:19Z</time>
      </trkpt>
      <trkpt lat="46.37172" lon="4.61547">
        <ele>460</ele>
        <time>2018-03-28T23:41:19Z</time>
      </trkpt>
      <trkpt lat="46.37224" lon="4.61549">
        <ele>455</ele>
        <time>2018-03-28T23:42:19Z</time>
      </trkpt>
      <trkpt lat="46.37262" lon="4.61574">
        <ele>455</ele>
        <time>2018-03-28T23:43:19Z</time>
      </trkpt>
      <trkpt lat="46.37384" lon="4.6159">
        <ele>453</ele>
        <time>2018-03-28T23:44:19Z</time>
      </trkpt>
      <trkpt lat="46.37503" lon="4.61614">
        <ele>453</ele>
        <time>2018-03-28T23:45:19Z</time>
      </trkpt>
      <trkpt lat="46.37647" lon="4.61617">
        <ele>448</ele>
        <time>2018-03-28T23:46:19Z</time>
      </trkpt>
      <trkpt lat="46.37722" lon="4.61668">
        <ele>449</ele>
        <time>2018-03-28T23:47:19Z</time>
      </trkpt>
      <trkpt lat="46.37767" lon="4.61751">
        <ele>443</ele>
        <time>2018-03-28T23:48:19Z</time>
      </trkpt>
      <trkpt lat="46.37794" lon="4.6185">
        <ele>437</ele>
        <time>2018-03-28T23:49:19Z</time>
      </trkpt>
      <trkpt lat="46.37877" lon="4.61989">
        <ele>423</ele>
        <time>2018-03-28T23:50:19Z</time>
      </trkpt>
      <trkpt lat="46.37907" lon="4.62068">
        <ele>421</ele>
        <time>2018-03-28T23:51:19Z</time>
      </trkpt>
      <trkpt lat="46.37941" lon="4.62126">
        <ele>417</ele>
        <time>2018-03-28T23:52:19Z</time>
      </trkpt>
      <trkpt lat="46.3791" lon="4.62301">
        <ele>413</ele>
        <time>2018-03-28T23:53:19Z</time>
      </trkpt>
      <trkpt lat="46.37976" lon="4.62375">
        <ele>406</ele>
        <time>2018-03-28T23:54:19Z</time>
      </trkpt>
      <trkpt lat="46.38043" lon="4.62408">
        <ele>399</ele>
        <time>2018-03-28T23:55:19Z</time>
      </trkpt>
      <trkpt lat="46.38126" lon="4.62453">
        <ele>387</ele>
        <time>2018-03-28T23:56:19Z</time>
      </trkpt>
      <trkpt lat="46.3826" lon="4.62561">
        <ele>372</ele>
        <time>2018-03-28T23:57:19Z</time>
      </trkpt>
      <trkpt lat="46.38349" lon="4.62572">
        <ele>365</ele>
        <time>2018-03-28T23:58:19Z</time>
      </trkpt>
      <trkpt lat="46.38517" lon="4.62563">
        <ele>356</ele>
        <time>2018-03-28T23:59:19Z</time>
      </trkpt>
      <trkpt lat="46.38628" lon="4.62633">
        <ele>348</ele>
        <time>2018-03-29T00:00:19Z</time>
      </trkpt>
      <trkpt lat="46.38718" lon="4.62709">
        <ele>338</ele>
        <time>2018-03-29T00:01:19Z</time>
      </trkpt>
      <trkpt lat="46.38767" lon="4.62794">
        <ele>328</ele>
        <time>2018-03-29T00:02:19Z</time>
      </trkpt>
      <trkpt lat="46.38786" lon="4.62832">
        <ele>323</ele>
        <time>2018-03-29T00:03:19Z</time>
      </trkpt>
      <trkpt lat="46.38896" lon="4.62904">
        <ele>304</ele>
        <time>2018-03-29T00:04:19Z</time>
      </trkpt>
      <trkpt lat="46.38947" lon="4.62943">
        <ele>297</ele>
        <time>2018-03-29T00:05:19Z</time>
      </trkpt>
      <trkpt lat="46.3901" lon="4.62965">
        <ele>290</ele>
        <time>2018-03-29T00:06:19Z</time>
      </trkpt>
      <trkpt lat="46.3905" lon="4.62996">
        <ele>284</ele>
        <time>2018-03-29T00:07:19Z</time>
      </trkpt>
      <trkpt lat="46.39105" lon="4.6303">
        <ele>274</ele>
        <time>2018-03-29T00:08:19Z</time>
      </trkpt>
      <trkpt lat="46.39113" lon="4.63144">
        <ele>267</ele>
        <time>2018-03-29T00:09:19Z</time>
      </trkpt>
      <trkpt lat="46.39071" lon="4.63302">
        <ele>264</ele>
        <time>2018-03-29T00:10:19Z</time>
      </trkpt>
      <trkpt lat="46.39201" lon="4.63346">
        <ele>256</ele>
        <time>2018-03-29T00:11:19Z</time>
      </trkpt>
      <trkpt lat="46.39213" lon="4.63413">
        <ele>255</ele>
        <time>2018-03-29T00:12:19Z</time>
      </trkpt>
      <trkpt lat="46.39167" lon="4.6381">
        <ele>252</ele>
        <time>2018-03-29T00:13:19Z</time>
      </trkpt>
      <trkpt lat="46.39142" lon="4.63983">
        <ele>258</ele>
        <time>2018-03-29T00:14:19Z</time>
      </trkpt>
      <trkpt lat="46.3953" lon="4.64602">
        <ele>277</ele>
        <time>2018-03-29T00:15:19Z</time>
      </trkpt>
      <trkpt lat="46.39569" lon="4.6473">
        <ele>285</ele>
        <time>2018-03-29T00:16:19Z</time>
      </trkpt>
      <trkpt lat="46.39585" lon="4.64953">
        <ele>285</ele>
        <time>2018-03-29T00:17:19Z</time>
      </trkpt>
      <trkpt lat="46.3957" lon="4.65076">
        <ele>289</ele>
        <time>2018-03-29T00:18:19Z</time>
      </trkpt>
      <trkpt lat="46.39856" lon="4.65083">
        <ele>267</ele>
        <time>2018-03-29T00:19:19Z</time>
      </trkpt>
      <trkpt lat="46.39834" lon="4.65143">
        <ele>271</ele>
        <time>2018-03-29T00:20:19Z</time>
      </trkpt>
      <trkpt lat="46.39687" lon="4.65195">
        <ele>275</ele>
        <time>2018-03-29T00:21:19Z</time>
      </trkpt>
      <trkpt lat="46.39617" lon="4.65253">
        <ele>278</ele>
        <time>2018-03-29T00:22:19Z</time>
      </trkpt>
      <trkpt lat="46.39473" lon="4.65475">
        <ele>289</ele>
        <time>2018-03-29T00:23:19Z</time>
      </trkpt>
      <trkpt lat="46.39472" lon="4.65556">
        <ele>286</ele>
        <time>2018-03-29T00:24:19Z</time>
      </trkpt>
      <trkpt lat="46.39502" lon="4.65592">
        <ele>285</ele>
        <time>2018-03-29T00:25:19Z</time>
      </trkpt>
      <trkpt lat="46.39551" lon="4.65547">
        <ele>285</ele>
        <time>2018-03-29T00:26:19Z</time>
      </trkpt>
      <trkpt lat="46.39571" lon="4.6561">
        <ele>291</ele>
        <time>2018-03-29T00:27:19Z</time>
      </trkpt>
      <trkpt lat="46.39525" lon="4.65706">
        <ele>297</ele>
        <time>2018-03-29T00:28:19Z</time>
      </trkpt>
      <trkpt lat="46.39696" lon="4.65522">
        <ele>293</ele>
        <time>2018-03-29T00:29:19Z</time>
      </trkpt>
      <trkpt lat="46.39767" lon="4.6547">
        <ele>292</ele>
        <time>2018-03-29T00:30:19Z</time>
      </trkpt>
      <trkpt lat="46.39935" lon="4.65439">
        <ele>286</ele>
        <time>2018-03-29T00:31:19Z</time>
      </trkpt>
      <trkpt lat="46.39975" lon="4.65507">
        <ele>291</ele>
        <time>2018-03-29T00:32:19Z</time>
      </trkpt>
      <trkpt lat="46.40043" lon="4.65462">
        <ele>283</ele>
        <time>2018-03-29T00:33:19Z</time>
      </trkpt>
      <trkpt lat="46.40149" lon="4.65484">
        <ele>281</ele>
        <time>2018-03-29T00:34:19Z</time>
      </trkpt>
      <trkpt lat="46.40327" lon="4.65634">
        <ele>279</ele>
        <time>2018-03-29T00:35:19Z</time>
      </trkpt>
      <trkpt lat="46.40546" lon="4.65697">
        <ele>268</ele>
        <time>2018-03-29T00:36:19Z</time>
      </trkpt>
      <trkpt lat="46.4059" lon="4.65807">
        <ele>278</ele>
        <time>2018-03-29T00:37:19Z</time>
      </trkpt>
      <trkpt lat="46.40772" lon="4.65856">
        <ele>265</ele>
        <time>2018-03-29T00:38:19Z</time>
      </trkpt>
      <trkpt lat="46.40803" lon="4.65913">
        <ele>264</ele>
        <time>2018-03-29T00:39:19Z</time>
      </trkpt>
      <trkpt lat="46.41088" lon="4.66018">
        <ele>258</ele>
        <time>2018-03-29T00:40:19Z</time>
      </trkpt>
      <trkpt lat="46.41117" lon="4.65964">
        <ele>255</ele>
        <time>2018-03-29T00:41:19Z</time>
      </trkpt>
      <trkpt lat="46.41516" lon="4.6617">
        <ele>249</ele>
        <time>2018-03-29T00:42:19Z</time>
      </trkpt>
      <trkpt lat="46.41792" lon="4.66399">
        <ele>252</ele>
        <time>2018-03-29T00:43:19Z</time>
      </trkpt>
      <trkpt lat="46.41818" lon="4.66509">
        <ele>258</ele>
        <time>2018-03-29T00:44:19Z</time>
      </trkpt>
      <trkpt lat="46.41909" lon="4.66368">
        <ele>248</ele>
        <time>2018-03-29T00:45:19Z</time>
      </trkpt>
      <trkpt lat="46.41989" lon="4.66361">
        <ele>245</ele>
        <time>2018-03-29T00:46:19Z</time>
      </trkpt>
      <trkpt lat="46.42209" lon="4.66507">
        <ele>249</ele>
        <time>2018-03-29T00:47:19Z</time>
      </trkpt>
      <trkpt lat="46.42352" lon="4.66648">
        <ele>250</ele>
        <time>2018-03-29T00:48:19Z</time>
      </trkpt>
      <trkpt lat="46.42384" lon="4.66568">
        <ele>247</ele>
        <time>2018-03-29T00:49:19Z</time>
      </trkpt>
      <trkpt lat="46.42638" lon="4.66702">
        <ele>246</ele>
        <time>2018-03-29T00:50:19Z</time>
      </trkpt>
      <trkpt lat="46.42642" lon="4.66676">
        <ele>245</ele>
        <time>2018-03-29T00:51:19Z</time>
      </trkpt>
      <trkpt lat="46.42564" lon="4.66629">
        <ele>245</ele>
        <time>2018-03-29T00:52:19Z</time>
      </trkpt>
      <trkpt lat="46.42621" lon="4.66611">
        <ele>244</ele>
        <time>2018-03-29T00:53:19Z</time>
      </trkpt>
      <trkpt lat="46.4266" lon="4.66616">
        <ele>243</ele>
        <time>2018-03-29T00:54:19Z</time>
      </trkpt>
      <trkpt lat="46.42745" lon="4.66672">
        <ele>243</ele>
        <time>2018-03-29T00:55:19Z</time>
      </trkpt>
      <trkpt lat="46.42951" lon="4.66765">
        <ele>241</ele>
        <time>2018-03-29T00:56:19Z</time>
      </trkpt>
      <trkpt lat="46.43009" lon="4.66781">
        <ele>240</ele>
        <time>2018-03-29T00:57:19Z</time>
      </trkpt>
      <trkpt lat="46.43083" lon="4.66756">
        <ele>237</ele>
        <time>2018-03-29T00:58:19Z</time>
      </trkpt>
      <trkpt lat="46.43238" lon="4.66746">
        <ele>236</ele>
        <time>2018-03-29T00:59:19Z</time>
      </trkpt>
      <trkpt lat="46.43218" lon="4.66444">
        <ele>235</ele>
        <time>2018-03-29T01:00:19Z</time>
      </trkpt>
      <trkpt lat="46.43219" lon="4.66384">
        <ele>235</ele>
        <time>2018-03-29T01:01:19Z</time>
      </trkpt>
      <trkpt lat="46.43211" lon="4.66316">
        <ele>236</ele>
        <time>2018-03-29T01:02:19Z</time>
      </trkpt>
      <trkpt lat="46.43209" lon="4.66166">
        <ele>238</ele>
        <time>2018-03-29T01:03:19Z</time>
      </trkpt>
      <trkpt lat="46.43287" lon="4.66217">
        <ele>238</ele>
        <time>2018-03-29T01:04:19Z</time>
      </trkpt>
      <trkpt lat="46.43516" lon="4.66309">
        <ele>234</ele>
        <time>2018-03-29T01:05:19Z</time>
      </trkpt>
      <trkpt lat="46.43562" lon="4.6628">
        <ele>235</ele>
        <time>2018-03-29T01:06:19Z</time>
      </trkpt>
      <trkpt lat="46.43643" lon="4.65971">
        <ele>239</ele>
        <time>2018-03-29T01:07:19Z</time>
      </trkpt>
      <trkpt lat="46.43669" lon="4.65921">
        <ele>242</ele>
        <time>2018-03-29T01:08:19Z</time>
      </trkpt>
      <trkpt lat="46.4376" lon="4.658">
        <ele>253</ele>
        <time>2018-03-29T01:09:19Z</time>
      </trkpt>
      <trkpt lat="46.4366" lon="4.65774">
        <ele>255</ele>
        <time>2018-03-29T01:10:19Z</time>
      </trkpt>
      <trkpt lat="46.4369" lon="4.65703">
        <ele>261</ele>
        <time>2018-03-29T01:11:19Z</time>
      </trkpt>
      <trkpt lat="46.43724" lon="4.65661">
        <ele>266</ele>
        <time>2018-03-29T01:12:19Z</time>
      </trkpt>
    </trkseg>
  </trk>
</gpx>